sensor_id;sensor_type;location;lat;lon;timestamp;P1;durP1;ratioP1;P2;durP2;ratioP2
22697;SDS011;11516;51.612;7.510;2022-12-10T00:01:42;4.13;;;3.75;;
22697;SDS011;11516;51.612;7.510;2022-12-10T00:04:09;5.75;;;4.60;;
22697;SDS011;11516;51.612;7.510;2022-12-10T00:06:36;4.95;;;3.70;;
22697;SDS011;11516;51.612;7.510;2022-12-10T00:09:03;9.85;;;5.38;;
22697;SDS011;11516;51.612;7.510;2022-12-10T00:11:31;7.20;;;5.37;;
22697;SDS011;11516;51.612;7.510;2022-12-10T00:13:57;4.68;;;4.28;;
22697;SDS011;11516;51.612;7.510;2022-12-10T00:16:24;4.80;;;3.55;;
22697;SDS011;11516;51.612;7.510;2022-12-10T00:18:51;3.88;;;3.47;;
22697;SDS011;11516;51.612;7.510;2022-12-10T00:21:18;4.30;;;3.90;;
22697;SDS011;11516;51.612;7.510;2022-12-10T00:23:46;5.28;;;3.42;;
22697;SDS011;11516;51.612;7.510;2022-12-10T00:26:12;4.03;;;3.23;;
22697;SDS011;11516;51.612;7.510;2022-12-10T00:28:45;10.30;;;3.85;;
22697;SDS011;11516;51.612;7.510;2022-12-10T00:31:16;5.85;;;4.22;;
22697;SDS011;11516;51.612;7.510;2022-12-10T00:33:43;4.68;;;4.13;;
22697;SDS011;11516;51.612;7.510;2022-12-10T00:36:10;5.60;;;4.38;;
22697;SDS011;11516;51.612;7.510;2022-12-10T00:38:42;6.03;;;3.92;;
22697;SDS011;11516;51.612;7.510;2022-12-10T00:41:08;8.68;;;4.00;;
22697;SDS011;11516;51.612;7.510;2022-12-10T00:43:34;6.93;;;4.13;;
22697;SDS011;11516;51.612;7.510;2022-12-10T00:46:00;3.83;;;3.00;;
22697;SDS011;11516;51.612;7.510;2022-12-10T00:48:26;11.05;;;4.93;;
22697;SDS011;11516;51.612;7.510;2022-12-10T00:51:01;9.47;;;4.33;;
22697;SDS011;11516;51.612;7.510;2022-12-10T00:53:27;5.80;;;3.47;;
22697;SDS011;11516;51.612;7.510;2022-12-10T00:55:54;3.72;;;3.13;;
22697;SDS011;11516;51.612;7.510;2022-12-10T00:58:20;7.55;;;6.05;;
22697;SDS011;11516;51.612;7.510;2022-12-10T01:00:46;6.67;;;4.20;;
22697;SDS011;11516;51.612;7.510;2022-12-10T01:03:13;8.18;;;3.40;;
22697;SDS011;11516;51.612;7.510;2022-12-10T01:05:39;5.22;;;3.47;;
22697;SDS011;11516;51.612;7.510;2022-12-10T01:08:04;5.80;;;4.77;;
22697;SDS011;11516;51.612;7.510;2022-12-10T01:10:30;13.90;;;4.00;;
22697;SDS011;11516;51.612;7.510;2022-12-10T01:12:55;4.18;;;3.70;;
22697;SDS011;11516;51.612;7.510;2022-12-10T01:15:21;6.30;;;3.57;;
22697;SDS011;11516;51.612;7.510;2022-12-10T01:17:46;5.77;;;3.67;;
22697;SDS011;11516;51.612;7.510;2022-12-10T01:20:12;4.80;;;3.65;;
22697;SDS011;11516;51.612;7.510;2022-12-10T01:22:37;4.07;;;2.73;;
22697;SDS011;11516;51.612;7.510;2022-12-10T01:25:03;4.53;;;4.18;;
22697;SDS011;11516;51.612;7.510;2022-12-10T01:27:29;4.47;;;3.22;;
22697;SDS011;11516;51.612;7.510;2022-12-10T01:29:55;3.50;;;2.90;;
22697;SDS011;11516;51.612;7.510;2022-12-10T01:32:20;3.47;;;3.17;;
22697;SDS011;11516;51.612;7.510;2022-12-10T01:34:46;4.30;;;3.75;;
22697;SDS011;11516;51.612;7.510;2022-12-10T01:37:12;5.85;;;4.25;;
22697;SDS011;11516;51.612;7.510;2022-12-10T01:39:37;4.17;;;3.23;;
22697;SDS011;11516;51.612;7.510;2022-12-10T01:42:04;3.70;;;3.40;;
22697;SDS011;11516;51.612;7.510;2022-12-10T01:46:56;5.20;;;3.03;;
22697;SDS011;11516;51.612;7.510;2022-12-10T01:49:26;2.42;;;2.22;;
22697;SDS011;11516;51.612;7.510;2022-12-10T01:51:59;3.08;;;2.03;;
22697;SDS011;11516;51.612;7.510;2022-12-10T01:54:29;9.40;;;4.03;;
22697;SDS011;11516;51.612;7.510;2022-12-10T01:57:12;12.57;;;4.68;;
22697;SDS011;11516;51.612;7.510;2022-12-10T01:59:41;7.25;;;4.13;;
22697;SDS011;11516;51.612;7.510;2022-12-10T02:04:56;7.43;;;3.92;;
22697;SDS011;11516;51.612;7.510;2022-12-10T02:10:23;5.93;;;4.35;;
22697;SDS011;11516;51.612;7.510;2022-12-10T02:13:05;5.20;;;4.32;;
22697;SDS011;11516;51.612;7.510;2022-12-10T02:15:46;4.40;;;3.88;;
22697;SDS011;11516;51.612;7.510;2022-12-10T02:18:37;5.90;;;4.13;;
22697;SDS011;11516;51.612;7.510;2022-12-10T02:21:08;4.15;;;3.55;;
22697;SDS011;11516;51.612;7.510;2022-12-10T02:23:46;5.07;;;4.55;;
22697;SDS011;11516;51.612;7.510;2022-12-10T02:29:23;6.73;;;4.30;;
22697;SDS011;11516;51.612;7.510;2022-12-10T02:31:55;3.10;;;2.90;;
22697;SDS011;11516;51.612;7.510;2022-12-10T02:34:27;4.03;;;3.70;;
22697;SDS011;11516;51.612;7.510;2022-12-10T02:36:57;8.88;;;3.50;;
22697;SDS011;11516;51.612;7.510;2022-12-10T02:39:29;4.50;;;4.05;;
22697;SDS011;11516;51.612;7.510;2022-12-10T02:42:00;3.50;;;3.20;;
22697;SDS011;11516;51.612;7.510;2022-12-10T02:44:28;3.83;;;2.72;;
22697;SDS011;11516;51.612;7.510;2022-12-10T02:46:56;7.68;;;5.25;;
22697;SDS011;11516;51.612;7.510;2022-12-10T02:49:23;4.68;;;3.25;;
22697;SDS011;11516;51.612;7.510;2022-12-10T02:51:51;61.30;;;38.45;;
22697;SDS011;11516;51.612;7.510;2022-12-10T02:57:07;85.25;;;48.63;;
22697;SDS011;11516;51.612;7.510;2022-12-10T02:59:57;80.13;;;47.20;;
22697;SDS011;11516;51.612;7.510;2022-12-10T03:05:13;67.30;;;40.60;;
22697;SDS011;11516;51.612;7.510;2022-12-10T03:10:33;53.63;;;35.88;;
22697;SDS011;11516;51.612;7.510;2022-12-10T03:13:06;53.50;;;34.97;;
22697;SDS011;11516;51.612;7.510;2022-12-10T03:15:35;54.95;;;36.25;;
22697;SDS011;11516;51.612;7.510;2022-12-10T03:18:04;51.78;;;35.03;;
22697;SDS011;11516;51.612;7.510;2022-12-10T03:20:32;53.70;;;35.50;;
22697;SDS011;11516;51.612;7.510;2022-12-10T03:22:59;52.33;;;35.47;;
22697;SDS011;11516;51.612;7.510;2022-12-10T03:25:26;53.47;;;35.67;;
22697;SDS011;11516;51.612;7.510;2022-12-10T03:27:54;54.37;;;34.60;;
22697;SDS011;11516;51.612;7.510;2022-12-10T03:30:22;54.15;;;35.22;;
22697;SDS011;11516;51.612;7.510;2022-12-10T03:32:48;54.10;;;34.67;;
22697;SDS011;11516;51.612;7.510;2022-12-10T03:35:14;53.92;;;35.53;;
22697;SDS011;11516;51.612;7.510;2022-12-10T03:37:42;56.33;;;35.78;;
22697;SDS011;11516;51.612;7.510;2022-12-10T03:40:08;52.63;;;35.38;;
22697;SDS011;11516;51.612;7.510;2022-12-10T03:42:35;56.15;;;35.58;;
22697;SDS011;11516;51.612;7.510;2022-12-10T03:45:01;51.97;;;33.85;;
22697;SDS011;11516;51.612;7.510;2022-12-10T03:47:27;52.17;;;34.58;;
22697;SDS011;11516;51.612;7.510;2022-12-10T03:49:53;53.45;;;36.03;;
22697;SDS011;11516;51.612;7.510;2022-12-10T03:52:18;52.60;;;34.27;;
22697;SDS011;11516;51.612;7.510;2022-12-10T03:54:44;52.93;;;35.57;;
22697;SDS011;11516;51.612;7.510;2022-12-10T03:57:09;53.42;;;34.92;;
22697;SDS011;11516;51.612;7.510;2022-12-10T03:59:35;49.87;;;34.53;;
22697;SDS011;11516;51.612;7.510;2022-12-10T04:02:01;51.33;;;34.87;;
22697;SDS011;11516;51.612;7.510;2022-12-10T04:04:26;50.85;;;33.97;;
22697;SDS011;11516;51.612;7.510;2022-12-10T04:06:52;48.00;;;32.80;;
22697;SDS011;11516;51.612;7.510;2022-12-10T04:09:18;48.72;;;33.42;;
22697;SDS011;11516;51.612;7.510;2022-12-10T04:11:43;49.37;;;34.20;;
22697;SDS011;11516;51.612;7.510;2022-12-10T04:14:10;52.50;;;33.72;;
22697;SDS011;11516;51.612;7.510;2022-12-10T04:16:55;50.22;;;33.45;;
22697;SDS011;11516;51.612;7.510;2022-12-10T04:19:21;49.57;;;34.37;;
22697;SDS011;11516;51.612;7.510;2022-12-10T04:21:46;50.35;;;33.75;;
22697;SDS011;11516;51.612;7.510;2022-12-10T04:24:38;49.05;;;33.97;;
22697;SDS011;11516;51.612;7.510;2022-12-10T04:27:24;46.83;;;33.37;;
22697;SDS011;11516;51.612;7.510;2022-12-10T04:29:52;48.03;;;33.53;;
22697;SDS011;11516;51.612;7.510;2022-12-10T04:32:18;47.05;;;33.45;;
22697;SDS011;11516;51.612;7.510;2022-12-10T04:34:44;50.20;;;34.57;;
22697;SDS011;11516;51.612;7.510;2022-12-10T04:37:10;49.00;;;33.63;;
22697;SDS011;11516;51.612;7.510;2022-12-10T04:39:37;49.30;;;33.73;;
22697;SDS011;11516;51.612;7.510;2022-12-10T04:42:03;44.53;;;31.42;;
22697;SDS011;11516;51.612;7.510;2022-12-10T04:44:30;47.20;;;32.17;;
22697;SDS011;11516;51.612;7.510;2022-12-10T04:46:55;44.17;;;30.45;;
22697;SDS011;11516;51.612;7.510;2022-12-10T04:49:21;47.90;;;31.83;;
22697;SDS011;11516;51.612;7.510;2022-12-10T04:51:47;47.25;;;32.88;;
22697;SDS011;11516;51.612;7.510;2022-12-10T04:54:13;47.20;;;32.63;;
22697;SDS011;11516;51.612;7.510;2022-12-10T04:56:39;45.08;;;31.60;;
22697;SDS011;11516;51.612;7.510;2022-12-10T04:59:05;46.50;;;31.47;;
22697;SDS011;11516;51.612;7.510;2022-12-10T05:01:31;43.53;;;30.45;;
22697;SDS011;11516;51.612;7.510;2022-12-10T05:04:00;47.08;;;31.60;;
22697;SDS011;11516;51.612;7.510;2022-12-10T05:06:28;47.00;;;32.05;;
22697;SDS011;11516;51.612;7.510;2022-12-10T05:08:53;40.57;;;27.53;;
22697;SDS011;11516;51.612;7.510;2022-12-10T05:11:20;43.75;;;31.08;;
22697;SDS011;11516;51.612;7.510;2022-12-10T05:13:47;45.92;;;30.98;;
22697;SDS011;11516;51.612;7.510;2022-12-10T05:16:15;46.23;;;31.27;;
22697;SDS011;11516;51.612;7.510;2022-12-10T05:18:43;44.20;;;29.85;;
22697;SDS011;11516;51.612;7.510;2022-12-10T05:21:12;45.78;;;31.48;;
22697;SDS011;11516;51.612;7.510;2022-12-10T05:23:41;43.58;;;30.75;;
22697;SDS011;11516;51.612;7.510;2022-12-10T05:28:48;39.05;;;26.63;;
22697;SDS011;11516;51.612;7.510;2022-12-10T05:31:34;40.47;;;28.60;;
22697;SDS011;11516;51.612;7.510;2022-12-10T05:34:00;41.10;;;27.30;;
22697;SDS011;11516;51.612;7.510;2022-12-10T05:36:26;40.37;;;28.37;;
22697;SDS011;11516;51.612;7.510;2022-12-10T05:38:54;40.47;;;28.83;;
22697;SDS011;11516;51.612;7.510;2022-12-10T05:41:22;40.20;;;27.25;;
22697;SDS011;11516;51.612;7.510;2022-12-10T05:43:50;40.22;;;27.75;;
22697;SDS011;11516;51.612;7.510;2022-12-10T05:46:20;39.05;;;28.17;;
22697;SDS011;11516;51.612;7.510;2022-12-10T05:48:48;38.75;;;27.40;;
22697;SDS011;11516;51.612;7.510;2022-12-10T05:51:16;39.63;;;27.08;;
22697;SDS011;11516;51.612;7.510;2022-12-10T05:53:43;38.95;;;26.83;;
22697;SDS011;11516;51.612;7.510;2022-12-10T05:56:10;39.63;;;26.92;;
22697;SDS011;11516;51.612;7.510;2022-12-10T05:58:38;40.77;;;28.70;;
22697;SDS011;11516;51.612;7.510;2022-12-10T06:01:07;39.00;;;26.92;;
22697;SDS011;11516;51.612;7.510;2022-12-10T06:03:35;41.97;;;28.25;;
22697;SDS011;11516;51.612;7.510;2022-12-10T06:06:01;40.28;;;26.52;;
22697;SDS011;11516;51.612;7.510;2022-12-10T06:08:26;40.07;;;27.13;;
22697;SDS011;11516;51.612;7.510;2022-12-10T06:10:52;40.63;;;28.08;;
22697;SDS011;11516;51.612;7.510;2022-12-10T06:13:18;38.40;;;27.23;;
22697;SDS011;11516;51.612;7.510;2022-12-10T06:15:44;40.50;;;27.75;;
22697;SDS011;11516;51.612;7.510;2022-12-10T06:18:10;39.80;;;27.00;;
22697;SDS011;11516;51.612;7.510;2022-12-10T06:20:37;37.97;;;26.57;;
22697;SDS011;11516;51.612;7.510;2022-12-10T06:23:03;38.63;;;27.67;;
22697;SDS011;11516;51.612;7.510;2022-12-10T06:25:29;38.13;;;26.88;;
22697;SDS011;11516;51.612;7.510;2022-12-10T06:27:55;37.58;;;25.30;;
22697;SDS011;11516;51.612;7.510;2022-12-10T06:30:20;38.93;;;26.37;;
22697;SDS011;11516;51.612;7.510;2022-12-10T06:32:46;41.63;;;27.83;;
22697;SDS011;11516;51.612;7.510;2022-12-10T06:35:11;40.53;;;27.08;;
22697;SDS011;11516;51.612;7.510;2022-12-10T06:37:37;39.07;;;27.17;;
22697;SDS011;11516;51.612;7.510;2022-12-10T06:40:03;40.22;;;27.35;;
22697;SDS011;11516;51.612;7.510;2022-12-10T06:42:29;40.50;;;28.52;;
22697;SDS011;11516;51.612;7.510;2022-12-10T06:44:55;44.80;;;28.67;;
22697;SDS011;11516;51.612;7.510;2022-12-10T06:47:20;41.80;;;27.55;;
22697;SDS011;11516;51.612;7.510;2022-12-10T06:49:46;36.33;;;25.40;;
22697;SDS011;11516;51.612;7.510;2022-12-10T06:52:11;35.55;;;24.38;;
22697;SDS011;11516;51.612;7.510;2022-12-10T06:54:37;40.13;;;26.17;;
22697;SDS011;11516;51.612;7.510;2022-12-10T06:57:02;37.67;;;25.73;;
22697;SDS011;11516;51.612;7.510;2022-12-10T06:59:28;37.42;;;25.48;;
22697;SDS011;11516;51.612;7.510;2022-12-10T07:01:53;38.67;;;26.10;;
22697;SDS011;11516;51.612;7.510;2022-12-10T07:04:19;39.28;;;26.02;;
22697;SDS011;11516;51.612;7.510;2022-12-10T07:06:44;37.93;;;26.33;;
22697;SDS011;11516;51.612;7.510;2022-12-10T07:09:10;39.70;;;26.00;;
22697;SDS011;11516;51.612;7.510;2022-12-10T07:11:36;38.58;;;26.58;;
22697;SDS011;11516;51.612;7.510;2022-12-10T07:14:02;38.92;;;26.35;;
22697;SDS011;11516;51.612;7.510;2022-12-10T07:16:28;38.73;;;26.00;;
22697;SDS011;11516;51.612;7.510;2022-12-10T07:18:58;37.95;;;26.02;;
22697;SDS011;11516;51.612;7.510;2022-12-10T07:21:26;41.30;;;27.05;;
22697;SDS011;11516;51.612;7.510;2022-12-10T07:24:02;39.25;;;26.23;;
22697;SDS011;11516;51.612;7.510;2022-12-10T07:26:30;37.97;;;26.65;;
22697;SDS011;11516;51.612;7.510;2022-12-10T07:28:58;39.63;;;26.73;;
22697;SDS011;11516;51.612;7.510;2022-12-10T07:31:24;38.60;;;26.90;;
22697;SDS011;11516;51.612;7.510;2022-12-10T07:33:50;38.00;;;26.58;;
22697;SDS011;11516;51.612;7.510;2022-12-10T07:36:17;39.13;;;27.13;;
22697;SDS011;11516;51.612;7.510;2022-12-10T07:38:42;40.80;;;27.70;;
22697;SDS011;11516;51.612;7.510;2022-12-10T07:41:09;39.47;;;27.47;;
22697;SDS011;11516;51.612;7.510;2022-12-10T07:43:36;37.70;;;26.73;;
22697;SDS011;11516;51.612;7.510;2022-12-10T07:46:14;42.22;;;27.73;;
22697;SDS011;11516;51.612;7.510;2022-12-10T07:48:43;40.72;;;27.70;;
22697;SDS011;11516;51.612;7.510;2022-12-10T07:51:10;40.75;;;27.13;;
22697;SDS011;11516;51.612;7.510;2022-12-10T07:53:35;43.60;;;28.05;;
22697;SDS011;11516;51.612;7.510;2022-12-10T07:56:01;41.07;;;28.17;;
22697;SDS011;11516;51.612;7.510;2022-12-10T07:58:28;41.17;;;28.17;;
22697;SDS011;11516;51.612;7.510;2022-12-10T08:00:53;39.70;;;27.27;;
22697;SDS011;11516;51.612;7.510;2022-12-10T08:03:19;44.00;;;29.52;;
22697;SDS011;11516;51.612;7.510;2022-12-10T08:05:44;42.00;;;28.73;;
22697;SDS011;11516;51.612;7.510;2022-12-10T08:08:10;42.20;;;28.65;;
22697;SDS011;11516;51.612;7.510;2022-12-10T08:10:36;43.13;;;28.50;;
22697;SDS011;11516;51.612;7.510;2022-12-10T08:13:03;40.37;;;29.13;;
22697;SDS011;11516;51.612;7.510;2022-12-10T08:15:30;43.40;;;29.77;;
22697;SDS011;11516;51.612;7.510;2022-12-10T08:17:55;44.95;;;30.33;;
22697;SDS011;11516;51.612;7.510;2022-12-10T08:20:21;42.90;;;28.70;;
22697;SDS011;11516;51.612;7.510;2022-12-10T08:22:48;43.70;;;29.67;;
22697;SDS011;11516;51.612;7.510;2022-12-10T08:25:13;42.50;;;28.73;;
22697;SDS011;11516;51.612;7.510;2022-12-10T08:27:39;39.45;;;27.75;;
22697;SDS011;11516;51.612;7.510;2022-12-10T08:30:04;41.53;;;29.10;;
22697;SDS011;11516;51.612;7.510;2022-12-10T08:32:30;43.78;;;28.83;;
22697;SDS011;11516;51.612;7.510;2022-12-10T08:34:56;40.25;;;27.88;;
22697;SDS011;11516;51.612;7.510;2022-12-10T08:37:22;40.13;;;28.23;;
22697;SDS011;11516;51.612;7.510;2022-12-10T08:39:47;41.50;;;27.97;;
22697;SDS011;11516;51.612;7.510;2022-12-10T08:42:13;41.83;;;27.63;;
22697;SDS011;11516;51.612;7.510;2022-12-10T08:44:38;42.20;;;28.83;;
22697;SDS011;11516;51.612;7.510;2022-12-10T08:47:04;39.30;;;27.27;;
22697;SDS011;11516;51.612;7.510;2022-12-10T08:49:29;41.73;;;28.03;;
22697;SDS011;11516;51.612;7.510;2022-12-10T08:51:55;42.42;;;28.55;;
22697;SDS011;11516;51.612;7.510;2022-12-10T08:54:21;40.77;;;29.03;;
22697;SDS011;11516;51.612;7.510;2022-12-10T08:56:46;38.33;;;27.67;;
22697;SDS011;11516;51.612;7.510;2022-12-10T08:59:12;41.65;;;28.42;;
22697;SDS011;11516;51.612;7.510;2022-12-10T09:01:38;40.30;;;27.25;;
22697;SDS011;11516;51.612;7.510;2022-12-10T09:04:03;41.10;;;27.27;;
22697;SDS011;11516;51.612;7.510;2022-12-10T09:06:29;39.05;;;26.42;;
22697;SDS011;11516;51.612;7.510;2022-12-10T09:08:55;36.17;;;26.08;;
22697;SDS011;11516;51.612;7.510;2022-12-10T09:11:22;38.17;;;25.77;;
22697;SDS011;11516;51.612;7.510;2022-12-10T09:13:50;39.50;;;26.33;;
22697;SDS011;11516;51.612;7.510;2022-12-10T09:16:16;38.22;;;25.42;;
22697;SDS011;11516;51.612;7.510;2022-12-10T09:18:41;34.57;;;24.50;;
22697;SDS011;11516;51.612;7.510;2022-12-10T09:21:08;34.85;;;24.90;;
22697;SDS011;11516;51.612;7.510;2022-12-10T09:23:35;36.67;;;25.35;;
22697;SDS011;11516;51.612;7.510;2022-12-10T09:26:00;34.08;;;24.50;;
22697;SDS011;11516;51.612;7.510;2022-12-10T09:28:29;31.42;;;22.90;;
22697;SDS011;11516;51.612;7.510;2022-12-10T09:30:58;33.77;;;24.37;;
22697;SDS011;11516;51.612;7.510;2022-12-10T09:33:26;34.42;;;23.33;;
22697;SDS011;11516;51.612;7.510;2022-12-10T09:38:38;29.10;;;20.90;;
22697;SDS011;11516;51.612;7.510;2022-12-10T09:41:12;32.55;;;23.25;;
22697;SDS011;11516;51.612;7.510;2022-12-10T09:43:47;30.95;;;22.23;;
22697;SDS011;11516;51.612;7.510;2022-12-10T09:46:31;32.17;;;22.15;;
22697;SDS011;11516;51.612;7.510;2022-12-10T09:49:16;29.05;;;20.55;;
22697;SDS011;11516;51.612;7.510;2022-12-10T09:51:48;29.30;;;20.95;;
22697;SDS011;11516;51.612;7.510;2022-12-10T09:54:19;32.13;;;21.57;;
22697;SDS011;11516;51.612;7.510;2022-12-10T09:56:50;29.40;;;21.27;;
22697;SDS011;11516;51.612;7.510;2022-12-10T09:59:31;29.70;;;20.02;;
22697;SDS011;11516;51.612;7.510;2022-12-10T10:04:52;32.33;;;21.33;;
22697;SDS011;11516;51.612;7.510;2022-12-10T10:07:42;31.30;;;21.42;;
22697;SDS011;11516;51.612;7.510;2022-12-10T10:13:00;29.93;;;21.80;;
22697;SDS011;11516;51.612;7.510;2022-12-10T10:15:37;30.88;;;21.25;;
22697;SDS011;11516;51.612;7.510;2022-12-10T10:18:11;32.33;;;21.92;;
22697;SDS011;11516;51.612;7.510;2022-12-10T10:20:57;28.75;;;20.50;;
22697;SDS011;11516;51.612;7.510;2022-12-10T10:23:24;29.63;;;20.70;;
22697;SDS011;11516;51.612;7.510;2022-12-10T10:25:50;29.50;;;20.80;;
22697;SDS011;11516;51.612;7.510;2022-12-10T10:28:19;28.48;;;21.10;;
22697;SDS011;11516;51.612;7.510;2022-12-10T10:30:47;29.80;;;21.38;;
22697;SDS011;11516;51.612;7.510;2022-12-10T10:33:14;31.00;;;20.52;;
22697;SDS011;11516;51.612;7.510;2022-12-10T10:35:48;28.33;;;20.95;;
22697;SDS011;11516;51.612;7.510;2022-12-10T10:38:19;30.05;;;21.17;;
22697;SDS011;11516;51.612;7.510;2022-12-10T10:40:51;30.40;;;21.42;;
22697;SDS011;11516;51.612;7.510;2022-12-10T10:43:23;30.85;;;22.10;;
22697;SDS011;11516;51.612;7.510;2022-12-10T10:46:06;31.80;;;22.05;;
22697;SDS011;11516;51.612;7.510;2022-12-10T10:48:36;31.40;;;21.67;;
22697;SDS011;11516;51.612;7.510;2022-12-10T10:53:47;40.00;;;26.10;;
22697;SDS011;11516;51.612;7.510;2022-12-10T10:56:27;47.05;;;31.02;;
22697;SDS011;11516;51.612;7.510;2022-12-10T10:58:58;52.92;;;35.28;;
22697;SDS011;11516;51.612;7.510;2022-12-10T11:01:50;55.67;;;34.97;;
22697;SDS011;11516;51.612;7.510;2022-12-10T11:04:24;57.63;;;35.45;;
22697;SDS011;11516;51.612;7.510;2022-12-10T11:06:55;59.35;;;37.25;;
22697;SDS011;11516;51.612;7.510;2022-12-10T11:09:28;63.70;;;38.15;;
22697;SDS011;11516;51.612;7.510;2022-12-10T11:11:59;59.35;;;36.50;;
22697;SDS011;11516;51.612;7.510;2022-12-10T11:14:30;64.05;;;39.60;;
22697;SDS011;11516;51.612;7.510;2022-12-10T11:17:18;65.75;;;39.75;;
22697;SDS011;11516;51.612;7.510;2022-12-10T11:22:29;64.95;;;38.17;;
22697;SDS011;11516;51.612;7.510;2022-12-10T11:24:57;59.95;;;36.92;;
22697;SDS011;11516;51.612;7.510;2022-12-10T11:30:00;57.67;;;35.00;;
22697;SDS011;11516;51.612;7.510;2022-12-10T11:32:33;58.50;;;36.53;;
22697;SDS011;11516;51.612;7.510;2022-12-10T11:35:36;63.65;;;38.47;;
22697;SDS011;11516;51.612;7.510;2022-12-10T11:38:20;60.83;;;37.13;;
22697;SDS011;11516;51.612;7.510;2022-12-10T11:57:20;57.22;;;34.83;;
22697;SDS011;11516;51.612;7.510;2022-12-10T12:00:12;54.08;;;34.97;;
22697;SDS011;11516;51.612;7.510;2022-12-10T12:16:15;53.37;;;34.97;;
22697;SDS011;11516;51.612;7.510;2022-12-10T12:21:56;54.00;;;34.47;;
22697;SDS011;11516;51.612;7.510;2022-12-10T12:24:35;53.88;;;33.15;;
22697;SDS011;11516;51.612;7.510;2022-12-10T12:27:22;53.00;;;32.17;;
22697;SDS011;11516;51.612;7.510;2022-12-10T12:30:03;53.15;;;33.30;;
22697;SDS011;11516;51.612;7.510;2022-12-10T12:41:36;48.85;;;30.25;;
22697;SDS011;11516;51.612;7.510;2022-12-10T12:44:28;52.83;;;32.55;;
22697;SDS011;11516;51.612;7.510;2022-12-10T12:47:02;52.70;;;32.67;;
22697;SDS011;11516;51.612;7.510;2022-12-10T12:49:36;53.85;;;35.35;;
22697;SDS011;11516;51.612;7.510;2022-12-10T12:53:05;51.28;;;32.35;;
22697;SDS011;11516;51.612;7.510;2022-12-10T12:55:11;51.95;;;31.70;;
22697;SDS011;11516;51.612;7.510;2022-12-10T12:57:56;57.50;;;35.65;;
22697;SDS011;11516;51.612;7.510;2022-12-10T13:00:34;50.50;;;31.73;;
22697;SDS011;11516;51.612;7.510;2022-12-10T13:03:35;58.53;;;36.10;;
22697;SDS011;11516;51.612;7.510;2022-12-10T13:08:52;71.18;;;40.08;;
22697;SDS011;11516;51.612;7.510;2022-12-10T13:11:36;56.13;;;32.83;;
22697;SDS011;11516;51.612;7.510;2022-12-10T13:14:04;51.75;;;32.40;;
22697;SDS011;11516;51.612;7.510;2022-12-10T13:27:10;60.05;;;38.20;;
22697;SDS011;11516;51.612;7.510;2022-12-10T13:29:46;53.72;;;32.55;;
22697;SDS011;11516;51.612;7.510;2022-12-10T13:37:34;59.97;;;34.83;;
22697;SDS011;11516;51.612;7.510;2022-12-10T13:46:25;55.15;;;33.53;;
22697;SDS011;11516;51.612;7.510;2022-12-10T13:48:54;63.22;;;37.13;;
22697;SDS011;11516;51.612;7.510;2022-12-10T13:51:30;57.47;;;34.58;;
22697;SDS011;11516;51.612;7.510;2022-12-10T13:59:57;59.10;;;35.58;;
22697;SDS011;11516;51.612;7.510;2022-12-10T14:05:27;62.97;;;36.38;;
22697;SDS011;11516;51.612;7.510;2022-12-10T14:07:59;59.00;;;34.08;;
22697;SDS011;11516;51.612;7.510;2022-12-10T14:10:29;60.50;;;35.75;;
22697;SDS011;11516;51.612;7.510;2022-12-10T14:12:56;60.35;;;34.88;;
22697;SDS011;11516;51.612;7.510;2022-12-10T14:15:24;55.83;;;35.25;;
22697;SDS011;11516;51.612;7.510;2022-12-10T14:17:53;55.83;;;34.10;;
22697;SDS011;11516;51.612;7.510;2022-12-10T14:20:25;58.15;;;35.45;;
22697;SDS011;11516;51.612;7.510;2022-12-10T14:22:52;60.88;;;36.17;;
22697;SDS011;11516;51.612;7.510;2022-12-10T14:25:42;58.83;;;36.50;;
22697;SDS011;11516;51.612;7.510;2022-12-10T14:28:12;65.50;;;36.80;;
22697;SDS011;11516;51.612;7.510;2022-12-10T14:30:45;61.97;;;37.25;;
22697;SDS011;11516;51.612;7.510;2022-12-10T14:33:14;56.80;;;33.67;;
22697;SDS011;11516;51.612;7.510;2022-12-10T14:35:42;58.93;;;35.53;;
22697;SDS011;11516;51.612;7.510;2022-12-10T14:38:20;64.53;;;38.00;;
22697;SDS011;11516;51.612;7.510;2022-12-10T14:40:52;65.20;;;38.33;;
22697;SDS011;11516;51.612;7.510;2022-12-10T14:43:22;64.25;;;37.95;;
22697;SDS011;11516;51.612;7.510;2022-12-10T14:45:58;65.13;;;37.78;;
22697;SDS011;11516;51.612;7.510;2022-12-10T14:48:25;63.53;;;36.40;;
22697;SDS011;11516;51.612;7.510;2022-12-10T14:50:51;66.20;;;39.67;;
22697;SDS011;11516;51.612;7.510;2022-12-10T14:53:18;63.08;;;36.33;;
22697;SDS011;11516;51.612;7.510;2022-12-10T14:55:48;64.87;;;38.83;;
22697;SDS011;11516;51.612;7.510;2022-12-10T14:58:18;63.33;;;36.10;;
22697;SDS011;11516;51.612;7.510;2022-12-10T15:01:02;67.68;;;39.13;;
22697;SDS011;11516;51.612;7.510;2022-12-10T15:03:29;68.72;;;40.45;;
22697;SDS011;11516;51.612;7.510;2022-12-10T15:05:59;69.00;;;40.42;;
22697;SDS011;11516;51.612;7.510;2022-12-10T15:08:30;66.78;;;38.92;;
22697;SDS011;11516;51.612;7.510;2022-12-10T15:10:56;68.50;;;39.72;;
22697;SDS011;11516;51.612;7.510;2022-12-10T15:13:33;69.65;;;39.80;;
22697;SDS011;11516;51.612;7.510;2022-12-10T15:16:04;66.00;;;39.83;;
22697;SDS011;11516;51.612;7.510;2022-12-10T15:18:31;65.90;;;40.08;;
22697;SDS011;11516;51.612;7.510;2022-12-10T15:21:05;70.60;;;39.22;;
22697;SDS011;11516;51.612;7.510;2022-12-10T15:23:35;69.88;;;39.63;;
22697;SDS011;11516;51.612;7.510;2022-12-10T15:26:11;70.30;;;38.07;;
22697;SDS011;11516;51.612;7.510;2022-12-10T15:28:43;66.68;;;37.97;;
22697;SDS011;11516;51.612;7.510;2022-12-10T15:33:45;65.80;;;39.08;;
22697;SDS011;11516;51.612;7.510;2022-12-10T15:36:24;69.22;;;38.10;;
22697;SDS011;11516;51.612;7.510;2022-12-10T15:39:16;66.05;;;38.78;;
22697;SDS011;11516;51.612;7.510;2022-12-10T15:41:52;66.50;;;38.65;;
22697;SDS011;11516;51.612;7.510;2022-12-10T15:46:52;68.68;;;39.90;;
22697;SDS011;11516;51.612;7.510;2022-12-10T15:49:34;69.20;;;39.90;;
22697;SDS011;11516;51.612;7.510;2022-12-10T15:52:00;61.17;;;37.60;;
22697;SDS011;11516;51.612;7.510;2022-12-10T15:54:27;65.22;;;38.63;;
22697;SDS011;11516;51.612;7.510;2022-12-10T15:56:57;65.03;;;38.95;;
22697;SDS011;11516;51.612;7.510;2022-12-10T15:59:22;64.23;;;37.67;;
22697;SDS011;11516;51.612;7.510;2022-12-10T16:01:48;62.28;;;36.55;;
22697;SDS011;11516;51.612;7.510;2022-12-10T16:04:14;59.80;;;36.50;;
22697;SDS011;11516;51.612;7.510;2022-12-10T16:06:39;65.15;;;38.95;;
22697;SDS011;11516;51.612;7.510;2022-12-10T16:09:05;65.70;;;38.88;;
22697;SDS011;11516;51.612;7.510;2022-12-10T16:11:31;63.05;;;37.85;;
22697;SDS011;11516;51.612;7.510;2022-12-10T16:13:57;65.82;;;37.97;;
22697;SDS011;11516;51.612;7.510;2022-12-10T16:16:24;61.17;;;36.73;;
22697;SDS011;11516;51.612;7.510;2022-12-10T16:18:49;62.08;;;37.92;;
22697;SDS011;11516;51.612;7.510;2022-12-10T16:21:15;64.60;;;37.97;;
22697;SDS011;11516;51.612;7.510;2022-12-10T16:23:40;63.97;;;38.57;;
22697;SDS011;11516;51.612;7.510;2022-12-10T16:28:42;68.32;;;39.75;;
22697;SDS011;11516;51.612;7.510;2022-12-10T16:31:10;61.33;;;36.42;;
22697;SDS011;11516;51.612;7.510;2022-12-10T16:33:37;60.92;;;36.33;;
22697;SDS011;11516;51.612;7.510;2022-12-10T16:36:02;60.37;;;36.50;;
22697;SDS011;11516;51.612;7.510;2022-12-10T16:38:28;61.22;;;36.55;;
22697;SDS011;11516;51.612;7.510;2022-12-10T16:40:53;59.25;;;35.42;;
22697;SDS011;11516;51.612;7.510;2022-12-10T16:43:20;58.05;;;35.92;;